sensor_id;sensor_type;location;lat;lon;timestamp;pressure;altitude;pressure_sealevel;temperature;humidity
66385;BME280;53426;55.872;37.462;2023-08-30T00:01:04;99099.50;;;15.00;82.44
66385;BME280;53426;55.872;37.462;2023-08-30T00:03:31;99097.66;;;15.00;82.48
66385;BME280;53426;55.872;37.462;2023-08-30T00:06:04;99075.00;;;14.88;82.21
66385;BME280;53426;55.872;37.462;2023-08-30T00:08:31;99093.66;;;14.96;82.11
66385;BME280;53426;55.872;37.462;2023-08-30T00:10:57;99086.66;;;14.95;81.80
66385;BME280;53426;55.872;37.462;2023-08-30T00:13:29;99098.47;;;15.01;82.32
66385;BME280;53426;55.872;37.462;2023-08-30T00:15:56;99073.19;;;14.81;82.21
66385;BME280;53426;55.872;37.462;2023-08-30T00:18:21;99093.00;;;14.94;82.30
66385;BME280;53426;55.872;37.462;2023-08-30T00:20:47;99095.31;;;14.89;82.53
66385;BME280;53426;55.872;37.462;2023-08-30T00:23:13;99107.34;;;14.93;82.53
66385;BME280;53426;55.872;37.462;2023-08-30T00:25:39;99101.81;;;14.95;82.20
66385;BME280;53426;55.872;37.462;2023-08-30T00:28:05;99086.81;;;14.86;82.19
66385;BME280;53426;55.872;37.462;2023-08-30T00:30:33;99106.81;;;14.90;81.84
66385;BME280;53426;55.872;37.462;2023-08-30T00:33:04;99107.66;;;14.90;81.98
66385;BME280;53426;55.872;37.462;2023-08-30T00:35:30;99099.81;;;14.81;81.64
66385;BME280;53426;55.872;37.462;2023-08-30T00:37:56;99103.50;;;14.88;81.89
66385;BME280;53426;55.872;37.462;2023-08-30T00:46:23;99108.16;;;14.86;81.88
66385;BME280;53426;55.872;37.462;2023-08-30T00:48:51;99104.47;;;14.79;81.83
66385;BME280;53426;55.872;37.462;2023-08-30T00:51:17;99103.84;;;14.77;81.79
66385;BME280;53426;55.872;37.462;2023-08-30T00:53:43;99121.47;;;14.86;81.90
66385;BME280;53426;55.872;37.462;2023-08-30T00:56:10;99090.84;;;14.65;81.79
66385;BME280;53426;55.872;37.462;2023-08-30T00:58:36;99113.16;;;14.81;81.78
66385;BME280;53426;55.872;37.462;2023-08-30T01:01:04;99124.81;;;14.88;81.73
66385;BME280;53426;55.872;37.462;2023-08-30T01:03:35;99112.47;;;14.79;81.79
66385;BME280;53426;55.872;37.462;2023-08-30T01:06:03;99136.13;;;14.90;81.80
66385;BME280;53426;55.872;37.462;2023-08-30T01:08:29;99130.66;;;14.91;81.52
66385;BME280;53426;55.872;37.462;2023-08-30T01:13:38;99112.66;;;14.85;81.80
66385;BME280;53426;55.872;37.462;2023-08-30T01:16:06;99128.31;;;14.88;81.57
66385;BME280;53426;55.872;37.462;2023-08-30T01:18:34;99132.00;;;14.87;81.32
66385;BME280;53426;55.872;37.462;2023-08-30T01:21:02;99132.16;;;14.86;81.41
66385;BME280;53426;55.872;37.462;2023-08-30T01:23:56;99140.81;;;14.88;81.35
66385;BME280;53426;55.872;37.462;2023-08-30T01:26:42;99105.31;;;14.71;81.36
66385;BME280;53426;55.872;37.462;2023-08-30T01:29:11;99129.16;;;14.81;81.08
66385;BME280;53426;55.872;37.462;2023-08-30T01:31:40;99134.13;;;14.84;81.03
66385;BME280;53426;55.872;37.462;2023-08-30T01:34:06;99128.78;;;14.84;81.07
66385;BME280;53426;55.872;37.462;2023-08-30T01:36:32;99133.97;;;14.85;80.98
66385;BME280;53426;55.872;37.462;2023-08-30T01:39:01;99128.81;;;14.76;80.75
66385;BME280;53426;55.872;37.462;2023-08-30T01:41:27;99116.13;;;14.70;80.75
66385;BME280;53426;55.872;37.462;2023-08-30T01:43:55;99135.16;;;14.83;80.85
66385;BME280;53426;55.872;37.462;2023-08-30T01:46:24;99098.31;;;14.54;80.65
66385;BME280;53426;55.872;37.462;2023-08-30T01:48:51;99143.47;;;14.80;80.81
66385;BME280;53426;55.872;37.462;2023-08-30T01:51:18;99137.78;;;14.75;80.28
66385;BME280;53426;55.872;37.462;2023-08-30T01:53:44;99146.47;;;14.77;80.34
66385;BME280;53426;55.872;37.462;2023-08-30T01:56:13;99107.97;;;14.55;80.44
66385;BME280;53426;55.872;37.462;2023-08-30T01:58:39;99133.47;;;14.65;80.44
66385;BME280;53426;55.872;37.462;2023-08-30T02:01:05;99129.78;;;14.58;80.35
66385;BME280;53426;55.872;37.462;2023-08-30T02:03:31;99130.13;;;14.55;80.35
66385;BME280;53426;55.872;37.462;2023-08-30T02:06:09;99119.44;;;14.47;80.47
66385;BME280;53426;55.872;37.462;2023-08-30T02:11:35;99127.84;;;14.35;81.42
66385;BME280;53426;55.872;37.462;2023-08-30T02:14:05;99108.66;;;14.07;81.89
66385;BME280;53426;55.872;37.462;2023-08-30T02:16:33;99124.94;;;14.04;82.40
66385;BME280;53426;55.872;37.462;2023-08-30T02:19:07;99136.94;;;14.08;82.69
66385;BME280;53426;55.872;37.462;2023-08-30T02:21:33;99140.91;;;14.04;82.51
66385;BME280;53426;55.872;37.462;2023-08-30T02:23:59;99132.56;;;13.99;83.15
66385;BME280;53426;55.872;37.462;2023-08-30T02:26:26;99136.56;;;14.03;83.05
66385;BME280;53426;55.872;37.462;2023-08-30T02:28:52;99135.25;;;13.99;83.07
66385;BME280;53426;55.872;37.462;2023-08-30T02:31:21;99153.09;;;14.06;82.88
66385;BME280;53426;55.872;37.462;2023-08-30T02:33:47;99128.03;;;13.91;82.88
66385;BME280;53426;55.872;37.462;2023-08-30T02:36:13;99155.75;;;14.14;82.67
66385;BME280;53426;55.872;37.462;2023-08-30T02:38:39;99154.94;;;14.14;82.26
66385;BME280;53426;55.872;37.462;2023-08-30T02:41:04;99163.94;;;14.21;82.46
66385;BME280;53426;55.872;37.462;2023-08-30T02:43:30;99168.59;;;14.19;81.97
66385;BME280;53426;55.872;37.462;2023-08-30T02:45:56;99177.75;;;14.16;82.27
66385;BME280;53426;55.872;37.462;2023-08-30T02:48:22;99164.59;;;14.15;82.12
66385;BME280;53426;55.872;37.462;2023-08-30T02:50:49;99163.09;;;14.12;82.21
66385;BME280;53426;55.872;37.462;2023-08-30T02:53:16;99138.69;;;13.91;82.39
66385;BME280;53426;55.872;37.462;2023-08-30T02:55:42;99173.75;;;14.12;82.33
66385;BME280;53426;55.872;37.462;2023-08-30T02:58:08;99168.56;;;14.11;82.10
66385;BME280;53426;55.872;37.462;2023-08-30T03:00:34;99169.59;;;14.18;82.24
66385;BME280;53426;55.872;37.462;2023-08-30T03:03:00;99152.25;;;14.14;82.10
66385;BME280;53426;55.872;37.462;2023-08-30T03:05:27;99163.59;;;14.24;81.83
66385;BME280;53426;55.872;37.462;2023-08-30T03:07:53;99160.59;;;14.19;81.31
66385;BME280;53426;55.872;37.462;2023-08-30T03:10:19;99164.44;;;14.24;81.01
66385;BME280;53426;55.872;37.462;2023-08-30T03:12:46;99149.13;;;14.18;80.88
66385;BME280;53426;55.872;37.462;2023-08-30T03:15:12;99158.81;;;14.28;80.38
66385;BME280;53426;55.872;37.462;2023-08-30T03:17:38;99166.66;;;14.29;80.23
66385;BME280;53426;55.872;37.462;2023-08-30T03:20:04;99148.66;;;14.31;80.46
66385;BME280;53426;55.872;37.462;2023-08-30T03:22:31;99143.16;;;14.24;80.15
66385;BME280;53426;55.872;37.462;2023-08-30T03:24:57;99162.69;;;14.41;80.09
66385;BME280;53426;55.872;37.462;2023-08-30T03:27:23;99153.41;;;14.45;79.93
66385;BME280;53426;55.872;37.462;2023-08-30T03:29:49;99104.88;;;14.17;79.74
66385;BME280;53426;55.872;37.462;2023-08-30T03:32:16;99120.69;;;14.27;79.62
66385;BME280;53426;55.872;37.462;2023-08-30T03:34:45;99163.91;;;14.55;79.37
66385;BME280;53426;55.872;37.462;2023-08-30T03:37:15;99151.75;;;14.52;79.26
66385;BME280;53426;55.872;37.462;2023-08-30T03:39:41;99153.06;;;14.48;79.18
66385;BME280;53426;55.872;37.462;2023-08-30T03:42:09;99176.25;;;14.64;78.49
66385;BME280;53426;55.872;37.462;2023-08-30T03:44:37;99158.75;;;14.53;78.44
66385;BME280;53426;55.872;37.462;2023-08-30T03:47:03;99168.75;;;14.59;78.45
66385;BME280;53426;55.872;37.462;2023-08-30T03:49:28;99158.78;;;14.61;78.06
66385;BME280;53426;55.872;37.462;2023-08-30T03:51:55;99163.78;;;14.73;77.94
66385;BME280;53426;55.872;37.462;2023-08-30T03:54:22;99148.78;;;14.72;77.78
66385;BME280;53426;55.872;37.462;2023-08-30T03:56:48;99152.78;;;14.76;77.72
66385;BME280;53426;55.872;37.462;2023-08-30T03:59:14;99164.47;;;14.91;77.69
66385;BME280;53426;55.872;37.462;2023-08-30T04:01:40;99141.97;;;14.85;77.41
66385;BME280;53426;55.872;37.462;2023-08-30T04:04:06;99171.47;;;15.08;76.99
66385;BME280;53426;55.872;37.462;2023-08-30T04:06:32;99165.66;;;15.04;76.51
66385;BME280;53426;55.872;37.462;2023-08-30T04:08:58;99169.66;;;15.08;76.65
66385;BME280;53426;55.872;37.462;2023-08-30T04:11:23;99170.13;;;15.12;76.18
66385;BME280;53426;55.872;37.462;2023-08-30T04:13:49;99126.63;;;14.79;75.47
66385;BME280;53426;55.872;37.462;2023-08-30T04:16:15;99179.47;;;15.08;76.02
66385;BME280;53426;55.872;37.462;2023-08-30T04:18:41;99157.81;;;15.03;75.64
66385;BME280;53426;55.872;37.462;2023-08-30T04:21:07;99169.00;;;15.15;75.51
66385;BME280;53426;55.872;37.462;2023-08-30T04:23:34;99129.97;;;14.97;75.46
66385;BME280;53426;55.872;37.462;2023-08-30T04:26:00;99090.81;;;14.74;75.70
66385;BME280;53426;55.872;37.462;2023-08-30T04:28:26;99173.81;;;15.27;75.39
66385;BME280;53426;55.872;37.462;2023-08-30T04:30:54;99159.31;;;15.30;75.35
66385;BME280;53426;55.872;37.462;2023-08-30T04:33:20;99159.47;;;15.36;74.83
66385;BME280;53426;55.872;37.462;2023-08-30T04:35:53;99186.66;;;15.48;75.03
66385;BME280;53426;55.872;37.462;2023-08-30T04:38:20;99167.13;;;15.39;74.48
66385;BME280;53426;55.872;37.462;2023-08-30T04:40:47;99172.13;;;15.42;74.56
66385;BME280;53426;55.872;37.462;2023-08-30T04:43:15;99177.31;;;15.52;74.23
66385;BME280;53426;55.872;37.462;2023-08-30T04:45:41;99176.31;;;15.53;73.97
66385;BME280;53426;55.872;37.462;2023-08-30T04:48:08;99191.47;;;15.61;73.62
66385;BME280;53426;55.872;37.462;2023-08-30T04:50:35;99162.94;;;15.61;73.35
66385;BME280;53426;55.872;37.462;2023-08-30T04:53:01;99139.97;;;15.52;72.96
66385;BME280;53426;55.872;37.462;2023-08-30T04:55:30;99176.94;;;15.79;73.00
66385;BME280;53426;55.872;37.462;2023-08-30T04:57:58;99177.75;;;15.88;72.73
66385;BME280;53426;55.872;37.462;2023-08-30T05:00:27;99178.41;;;15.98;72.22
66385;BME280;53426;55.872;37.462;2023-08-30T05:02:53;99168.03;;;16.03;71.87
66385;BME280;53426;55.872;37.462;2023-08-30T05:05:19;99164.63;;;16.17;71.53
66385;BME280;53426;55.872;37.462;2023-08-30T05:07:45;99158.28;;;17.03;69.92
66385;BME280;53426;55.872;37.462;2023-08-30T05:10:13;99171.09;;;18.56;66.08
66385;BME280;53426;55.872;37.462;2023-08-30T05:12:39;99162.28;;;19.68;61.26
66385;BME280;53426;55.872;37.462;2023-08-30T05:15:06;99179.78;;;20.67;58.18
66385;BME280;53426;55.872;37.462;2023-08-30T05:17:32;99166.03;;;21.56;54.75
66385;BME280;53426;55.872;37.462;2023-08-30T05:19:59;99176.22;;;22.51;51.42
66385;BME280;53426;55.872;37.462;2023-08-30T05:22:26;99174.56;;;22.43;51.72
66385;BME280;53426;55.872;37.462;2023-08-30T05:24:52;99179.50;;;21.69;53.40
66385;BME280;53426;55.872;37.462;2023-08-30T05:27:17;99136.66;;;20.48;54.33
66385;BME280;53426;55.872;37.462;2023-08-30T05:29:44;99135.56;;;19.60;57.60
66385;BME280;53426;55.872;37.462;2023-08-30T05:32:10;99134.28;;;18.86;59.27
66385;BME280;53426;55.872;37.462;2023-08-30T05:35:05;99149.53;;;18.64;60.82
66385;BME280;53426;55.872;37.462;2023-08-30T05:37:49;99162.38;;;18.68;61.03
66385;BME280;53426;55.872;37.462;2023-08-30T05:40:39;99160.03;;;18.29;61.39
66385;BME280;53426;55.872;37.462;2023-08-30T05:43:08;99162.53;;;18.02;62.01
66385;BME280;53426;55.872;37.462;2023-08-30T05:45:34;99157.41;;;17.48;63.01
66385;BME280;53426;55.872;37.462;2023-08-30T05:48:00;99126.00;;;17.04;64.34
66385;BME280;53426;55.872;37.462;2023-08-30T05:50:26;99187.34;;;17.29;64.84
66385;BME280;53426;55.872;37.462;2023-08-30T05:52:52;99150.56;;;17.08;64.66
66385;BME280;53426;55.872;37.462;2023-08-30T05:55:19;99172.03;;;17.23;64.83
66385;BME280;53426;55.872;37.462;2023-08-30T05:57:46;99138.78;;;17.17;65.13
66385;BME280;53426;55.872;37.462;2023-08-30T06:00:12;99163.31;;;17.58;64.83
66385;BME280;53426;55.872;37.462;2023-08-30T06:02:41;99129.06;;;17.39;64.39
66385;BME280;53426;55.872;37.462;2023-08-30T06:05:07;99156.00;;;17.52;64.73
66385;BME280;53426;55.872;37.462;2023-08-30T06:07:33;99138.00;;;17.46;64.77
66385;BME280;53426;55.872;37.462;2023-08-30T06:09:59;99145.78;;;17.55;65.12
66385;BME280;53426;55.872;37.462;2023-08-30T06:12:25;99183.88;;;17.80;64.91
66385;BME280;53426;55.872;37.462;2023-08-30T06:14:53;99170.47;;;17.80;64.48
66385;BME280;53426;55.872;37.462;2023-08-30T06:17:20;99165.41;;;17.85;64.04
66385;BME280;53426;55.872;37.462;2023-08-30T06:19:46;99178.16;;;17.98;63.47
66385;BME280;53426;55.872;37.462;2023-08-30T06:22:12;99171.25;;;17.89;63.57
66385;BME280;53426;55.872;37.462;2023-08-30T06:24:40;99181.19;;;17.80;63.81
66385;BME280;53426;55.872;37.462;2023-08-30T06:27:06;99170.59;;;17.72;63.82
66385;BME280;53426;55.872;37.462;2023-08-30T06:29:33;99183.22;;;17.78;63.79
66385;BME280;53426;55.872;37.462;2023-08-30T06:31:59;99186.09;;;17.91;63.57
66385;BME280;53426;55.872;37.462;2023-08-30T06:34:25;99179.00;;;18.13;63.12
66385;BME280;53426;55.872;37.462;2023-08-30T06:36:51;99189.25;;;18.10;63.07
66385;BME280;53426;55.872;37.462;2023-08-30T06:39:19;99148.97;;;17.88;63.23
66385;BME280;53426;55.872;37.462;2023-08-30T06:41:45;99167.44;;;18.13;62.99
66385;BME280;53426;55.872;37.462;2023-08-30T06:44:14;99182.97;;;18.32;62.15
66385;BME280;53426;55.872;37.462;2023-08-30T06:46:41;99170.38;;;18.32;62.08
66385;BME280;53426;55.872;37.462;2023-08-30T06:49:07;99176.00;;;18.37;62.04
66385;BME280;53426;55.872;37.462;2023-08-30T06:51:35;99175.06;;;18.45;62.07
66385;BME280;53426;55.872;37.462;2023-08-30T06:54:01;99172.09;;;18.55;60.98
66385;BME280;53426;55.872;37.462;2023-08-30T06:56:28;99179.97;;;18.56;61.45
66385;BME280;53426;55.872;37.462;2023-08-30T06:58:54;99157.69;;;18.41;62.00
66385;BME280;53426;55.872;37.462;2023-08-30T07:01:20;99174.16;;;18.38;61.39
66385;BME280;53426;55.872;37.462;2023-08-30T07:03:46;99182.56;;;18.35;61.64
66385;BME280;53426;55.872;37.462;2023-08-30T07:06:12;99170.88;;;18.21;61.51
66385;BME280;53426;55.872;37.462;2023-08-30T07:08:38;99179.81;;;18.14;61.82
66385;BME280;53426;55.872;37.462;2023-08-30T07:11:05;99190.94;;;18.11;61.96
66385;BME280;53426;55.872;37.462;2023-08-30T07:13:31;99186.09;;;18.21;61.67
66385;BME280;53426;55.872;37.462;2023-08-30T07:15:57;99190.81;;;18.19;61.34
66385;BME280;53426;55.872;37.462;2023-08-30T07:18:22;99195.13;;;18.34;61.59
66385;BME280;53426;55.872;37.462;2023-08-30T07:20:48;99196.63;;;18.37;61.39
66385;BME280;53426;55.872;37.462;2023-08-30T07:23:14;99192.53;;;18.41;61.33
66385;BME280;53426;55.872;37.462;2023-08-30T07:25:40;99184.22;;;18.36;60.92
66385;BME280;53426;55.872;37.462;2023-08-30T07:28:06;99148.53;;;18.00;61.08
66385;BME280;53426;55.872;37.462;2023-08-30T07:30:32;99097.81;;;17.83;60.89
66385;BME280;53426;55.872;37.462;2023-08-30T07:33:00;99200.75;;;18.69;60.58
66385;BME280;53426;55.872;37.462;2023-08-30T07:35:26;99150.28;;;18.58;59.76
66385;BME280;53426;55.872;37.462;2023-08-30T07:37:52;99185.84;;;18.81;59.46
66385;BME280;53426;55.872;37.462;2023-08-30T07:40:18;99144.50;;;18.75;59.38
66385;BME280;53426;55.872;37.462;2023-08-30T07:42:44;99169.75;;;19.02;59.34
66385;BME280;53426;55.872;37.462;2023-08-30T07:45:10;99183.16;;;19.02;59.29
66385;BME280;53426;55.872;37.462;2023-08-30T07:47:36;99200.34;;;19.08;59.13
66385;BME280;53426;55.872;37.462;2023-08-30T07:50:04;99206.41;;;18.95;59.49
66385;BME280;53426;55.872;37.462;2023-08-30T07:52:31;99204.25;;;19.05;59.52
66385;BME280;53426;55.872;37.462;2023-08-30T07:54:57;99205.47;;;19.24;59.07
66385;BME280;53426;55.872;37.462;2023-08-30T07:57:22;99172.16;;;19.18;58.16
66385;BME280;53426;55.872;37.462;2023-08-30T07:59:48;99207.06;;;19.40;57.38
66385;BME280;53426;55.872;37.462;2023-08-30T08:02:14;99198.31;;;19.52;56.88
66385;BME280;53426;55.872;37.462;2023-08-30T08:04:40;99198.28;;;19.74;56.55
66385;BME280;53426;55.872;37.462;2023-08-30T08:07:06;99197.38;;;19.94;55.42
66385;BME280;53426;55.872;37.462;2023-08-30T08:09:32;99198.69;;;20.05;55.38
66385;BME280;53426;55.872;37.462;2023-08-30T08:11:59;99187.16;;;20.11;54.58
66385;BME280;53426;55.872;37.462;2023-08-30T08:14:25;99211.63;;;20.29;54.30
66385;BME280;53426;55.872;37.462;2023-08-30T08:16:51;99193.72;;;20.09;54.56
66385;BME280;53426;55.872;37.462;2023-08-30T08:19:17;99169.19;;;20.59;53.04
66385;BME280;53426;55.872;37.462;2023-08-30T08:21:43;99174.97;;;20.63;52.37
66385;BME280;53426;55.872;37.462;2023-08-30T08:24:10;99202.22;;;21.07;51.82
66385;BME280;53426;55.872;37.462;2023-08-30T08:26:36;99230.25;;;21.39;50.88
66385;BME280;53426;55.872;37.462;2023-08-30T08:29:01;99218.25;;;21.94;50.00
66385;BME280;53426;55.872;37.462;2023-08-30T08:31:28;99217.06;;;22.61;48.27
66385;BME280;53426;55.872;37.462;2023-08-30T08:34:12;99221.44;;;24.85;44.94
66385;BME280;53426;55.872;37.462;2023-08-30T08:36:40;99225.69;;;25.11;43.15
66385;BME280;53426;55.872;37.462;2023-08-30T08:39:07;99211.31;;;24.63;42.93
66385;BME280;53426;55.872;37.462;2023-08-30T08:41:40;99216.31;;;23.80;44.52
66385;BME280;53426;55.872;37.462;2023-08-30T08:44:08;99220.75;;;23.18;45.42
66385;BME280;53426;55.872;37.462;2023-08-30T08:46:39;99218.66;;;23.13;46.04
66385;BME280;53426;55.872;37.462;2023-08-30T08:49:12;99233.78;;;23.84;45.08
66385;BME280;53426;55.872;37.462;2023-08-30T08:51:40;99235.41;;;23.85;44.76
66385;BME280;53426;55.872;37.462;2023-08-30T08:54:06;99239.03;;;25.13;41.56
66385;BME280;53426;55.872;37.462;2023-08-30T08:56:35;99233.22;;;26.27;39.97
66385;BME280;53426;55.872;37.462;2023-08-30T08:59:02;99240.44;;;26.73;39.28
66385;BME280;53426;55.872;37.462;2023-08-30T09:01:29;99225.19;;;26.09;40.16
66385;BME280;53426;55.872;37.462;2023-08-30T09:03:55;99237.59;;;26.28;40.05
66385;BME280;53426;55.872;37.462;2023-08-30T09:06:21;99238.25;;;25.77;40.03
66385;BME280;53426;55.872;37.462;2023-08-30T09:08:49;99237.47;;;24.87;42.04
66385;BME280;53426;55.872;37.462;2023-08-30T09:11:15;99228.50;;;25.05;41.23
66385;BME280;53426;55.872;37.462;2023-08-30T09:13:43;99243.13;;;25.04;41.58
66385;BME280;53426;55.872;37.462;2023-08-30T09:16:13;99229.47;;;25.52;40.41
66385;BME280;53426;55.872;37.462;2023-08-30T09:18:41;99238.41;;;26.17;39.14
66385;BME280;53426;55.872;37.462;2023-08-30T09:21:08;99240.31;;;26.28;38.74
66385;BME280;53426;55.872;37.462;2023-08-30T09:23:34;99251.03;;;25.47;39.97
66385;BME280;53426;55.872;37.462;2023-08-30T09:26:02;99239.81;;;25.85;39.61
66385;BME280;53426;55.872;37.462;2023-08-30T09:28:28;99243.31;;;25.32;40.34
66385;BME280;53426;55.872;37.462;2023-08-30T09:30:54;99203.94;;;24.33;41.36
66385;BME280;53426;55.872;37.462;2023-08-30T09:33:33;99239.34;;;23.89;43.43
66385;BME280;53426;55.872;37.462;2023-08-30T09:36:01;99245.00;;;22.86;45.05
66385;BME280;53426;55.872;37.462;2023-08-30T09:38:28;99247.19;;;23.03;45.00
66385;BME280;53426;55.872;37.462;2023-08-30T09:41:05;99223.31;;;23.06;45.29
66385;BME280;53426;55.872;37.462;2023-08-30T09:46:29;99265.38;;;23.20;44.88
66385;BME280;53426;55.872;37.462;2023-08-30T09:48:57;99229.53;;;23.38;44.22
66385;BME280;53426;55.872;37.462;2023-08-30T09:51:24;99247.94;;;24.04;43.38
66385;BME280;53426;55.872;37.462;2023-08-30T09:53:57;99219.78;;;25.03;41.50
66385;BME280;53426;55.872;37.462;2023-08-30T09:56:25;99182.06;;;25.54;39.10
66385;BME280;53426;55.872;37.462;2023-08-30T09:58:52;99257.91;;;27.45;36.64
66385;BME280;53426;55.872;37.462;2023-08-30T10:01:19;99278.72;;;27.52;36.51
66385;BME280;53426;55.872;37.462;2023-08-30T10:09:40;99278.72;;;27.52;37.12
66385;BME280;53426;55.872;37.462;2023-08-30T10:12:07;99261.94;;;28.21;35.77
66385;BME280;53426;55.872;37.462;2023-08-30T10:14:33;99267.19;;;27.61;36.53
66385;BME280;53426;55.872;37.462;2023-08-30T10:17:03;99250.13;;;27.66;36.61
66385;BME280;53426;55.872;37.462;2023-08-30T10:19:29;99260.16;;;28.70;34.68
66385;BME280;53426;55.872;37.462;2023-08-30T10:22:04;99272.06;;;29.83;33.14
66385;BME280;53426;55.872;37.462;2023-08-30T10:25:05;99276.50;;;30.21;35.05
66385;BME280;53426;55.872;37.462;2023-08-30T10:27:27;99284.47;;;29.16;33.60
66385;BME280;53426;55.872;37.462;2023-08-30T10:38:52;99268.97;;;28.17;35.55
66385;BME280;53426;55.872;37.462;2023-08-30T10:41:24;99269.78;;;27.84;35.72
66385;BME280;53426;55.872;37.462;2023-08-30T10:44:20;99268.78;;;28.24;35.57
66385;BME280;53426;55.872;37.462;2023-08-30T10:57:24;99165.41;;;28.29;33.96
66385;BME280;53426;55.872;37.462;2023-08-30T11:04:03;99256.22;;;28.78;33.61
66385;BME280;53426;55.872;37.462;2023-08-30T11:06:29;99244.97;;;29.18;33.01
66385;BME280;53426;55.872;37.462;2023-08-30T11:08:55;99267.22;;;29.10;33.20
66385;BME280;53426;55.872;37.462;2023-08-30T11:11:21;99256.59;;;28.70;33.82
66385;BME280;53426;55.872;37.462;2023-08-30T11:13:48;99243.97;;;28.04;34.68
66385;BME280;53426;55.872;37.462;2023-08-30T11:16:21;99257.09;;;27.45;36.14
66385;BME280;53426;55.872;37.462;2023-08-30T11:18:51;99253.50;;;26.48;37.34
66385;BME280;53426;55.872;37.462;2023-08-30T11:21:17;99255.69;;;25.69;38.99
66385;BME280;53426;55.872;37.462;2023-08-30T11:23:44;99256.88;;;24.84;40.70
66385;BME280;53426;55.872;37.462;2023-08-30T11:26:10;99269.09;;;24.38;41.61
66385;BME280;53426;55.872;37.462;2023-08-30T11:28:38;99262.63;;;23.90;42.45
66385;BME280;53426;55.872;37.462;2023-08-30T11:31:19;99267.06;;;23.53;43.93
66385;BME280;53426;55.872;37.462;2023-08-30T11:34:27;99123.34;;;22.37;44.14
66385;BME280;53426;55.872;37.462;2023-08-30T11:36:59;99219.91;;;22.79;44.71
66385;BME280;53426;55.872;37.462;2023-08-30T11:39:43;99208.94;;;22.68;45.34
66385;BME280;53426;55.872;37.462;2023-08-30T11:42:39;99270.28;;;22.99;45.60
66385;BME280;53426;55.872;37.462;2023-08-30T11:45:38;99276.41;;;22.74;46.44
66385;BME280;53426;55.872;37.462;2023-08-30T11:48:05;99274.16;;;22.58;46.56
66385;BME280;53426;55.872;37.462;2023-08-30T11:50:32;99267.13;;;22.44;46.31
66385;BME280;53426;55.872;37.462;2023-08-30T11:53:01;99264.88;;;22.21;47.46
66385;BME280;53426;55.872;37.462;2023-08-30T11:55:28;99274.25;;;22.19;48.20
66385;BME280;53426;55.872;37.462;2023-08-30T11:57:58;99275.91;;;22.13;48.30
66385;BME280;53426;55.872;37.462;2023-08-30T12:00:26;99249.75;;;21.94;48.91
66385;BME280;53426;55.872;37.462;2023-08-30T12:02:54;99251.44;;;21.95;47.92
66385;BME280;53426;55.872;37.462;2023-08-30T12:05:20;99264.72;;;21.96;48.14
66385;BME280;53426;55.872;37.462;2023-08-30T12:07:47;99245.84;;;21.63;48.60
66385;BME280;53426;55.872;37.462;2023-08-30T12:10:13;99255.59;;;21.71;48.46
66385;BME280;53426;55.872;37.462;2023-08-30T12:12:46;99255.97;;;21.68;48.71
66385;BME280;53426;55.872;37.462;2023-08-30T12:15:16;99241.47;;;21.43;49.61
66385;BME280;53426;55.872;37.462;2023-08-30T12:17:42;99249.75;;;21.48;50.06
66385;BME280;53426;55.872;37.462;2023-08-30T12:20:15;99238.56;;;21.64;49.97
66385;BME280;53426;55.872;37.462;2023-08-30T12:22:46;99224.28;;;21.63;49.37
66385;BME280;53426;55.872;37.462;2023-08-30T12:25:20;99229.44;;;21.71;49.56
66385;BME280;53426;55.872;37.462;2023-08-30T12:27:47;99142.16;;;20.87;49.83
66385;BME280;53426;55.872;37.462;2023-08-30T12:30:14;99232.75;;;21.34;50.10
66385;BME280;53426;55.872;37.462;2023-08-30T12:32:43;99205.19;;;21.25;49.80
66385;BME280;53426;55.872;37.462;2023-08-30T12:35:09;99223.25;;;21.38;50.01
66385;BME280;53426;55.872;37.462;2023-08-30T12:37:35;99188.38;;;21.10;49.87
66385;BME280;53426;55.872;37.462;2023-08-30T12:40:04;99185.69;;;21.10;49.94
66385;BME280;53426;55.872;37.462;2023-08-30T12:42:32;99209.34;;;21.35;49.61
66385;BME280;53426;55.872;37.462;2023-08-30T12:44:58;99201.69;;;21.38;49.86
66385;BME280;53426;55.872;37.462;2023-08-30T12:47:27;99207.88;;;21.39;50.67
66385;BME280;53426;55.872;37.462;2023-08-30T12:49:53;99148.38;;;21.07;50.62
66385;BME280;53426;55.872;37.462;2023-08-30T12:52:20;99184.69;;;21.44;50.84
66385;BME280;53426;55.872;37.462;2023-08-30T12:54:46;99193.19;;;21.41;50.52
66385;BME280;53426;55.872;37.462;2023-08-30T12:57:13;99179.09;;;21.33;50.98
66385;BME280;53426;55.872;37.462;2023-08-30T12:59:39;99179.06;;;21.39;51.29
66385;BME280;53426;55.872;37.462;2023-08-30T13:02:05;99157.97;;;21.36;50.94
66385;BME280;53426;55.872;37.462;2023-08-30T13:04:31;99146.78;;;21.33;50.94
66385;BME280;53426;55.872;37.462;2023-08-30T13:06:56;99122.53;;;21.19;51.29
66385;BME280;53426;55.872;37.462;2023-08-30T13:09:23;99144.28;;;21.31;51.37
66385;BME280;53426;55.872;37.462;2023-08-30T13:11:50;99140.75;;;21.17;50.45
66385;BME280;53426;55.872;37.462;2023-08-30T13:14:15;99123.53;;;21.05;51.10
66385;BME280;53426;55.872;37.462;2023-08-30T13:16:41;99093.28;;;20.83;51.38
66385;BME280;53426;55.872;37.462;2023-08-30T13:19:08;99126.44;;;21.10;51.46
66385;BME280;53426;55.872;37.462;2023-08-30T13:21:35;99110.53;;;21.15;51.16
66385;BME280;53426;55.872;37.462;2023-08-30T13:24:01;99128.34;;;21.36;50.97
66385;BME280;53426;55.872;37.462;2023-08-30T13:26:28;99125.84;;;21.35;51.11
66385;BME280;53426;55.872;37.462;2023-08-30T13:28:54;99116.94;;;21.27;51.16
66385;BME280;53426;55.872;37.462;2023-08-30T13:31:24;99088.97;;;20.89;50.64
66385;BME280;53426;55.872;37.462;2023-08-30T13:33:59;99109.44;;;20.97;51.16
66385;BME280;53426;55.872;37.462;2023-08-30T13:36:35;99091.78;;;20.68;51.47
66385;BME280;53426;55.872;37.462;2023-08-30T13:39:05;99083.28;;;20.51;51.81